Terminal Aerodrome Forecast
Issued by NWS Sioux Falls, SD

Home | Current Version | Previous Version | Text Only | Print | Product List | Glossary Off
Versions: 1 2 3 4 5 6 7 8 9 10 11 12 13 14

000
FTUS43 KFSD 201122
TAFFSD
TAF
KFSD 201122Z 2012/2112 29005KT P6SM SCT050 OVC090
     FM201600 33006KT P6SM SCT050 OVC120
     FM210200 27004KT P6SM SKC=

USA.gov is the U.S. government's official web portal to all federal, state and local government web resources and services.